sensor_id;sensor_type;location;lat;lon;timestamp;P1;durP1;ratioP1;P2;durP2;ratioP2
80854;SDS011;70272;49.222;-122.892;2023-09-12T00:01:20;4.53;;;2.25;;
80854;SDS011;70272;49.222;-122.892;2023-09-12T00:03:46;3.65;;;2.42;;
80854;SDS011;70272;49.222;-122.892;2023-09-12T00:06:12;4.38;;;2.58;;
80854;SDS011;70272;49.222;-122.892;2023-09-12T00:08:39;3.55;;;2.40;;
80854;SDS011;70272;49.222;-122.892;2023-09-12T00:11:06;4.30;;;3.50;;
80854;SDS011;70272;49.222;-122.892;2023-09-12T00:13:39;4.10;;;2.50;;
80854;SDS011;70272;49.222;-122.892;2023-09-12T00:16:07;5.53;;;2.28;;
80854;SDS011;70272;49.222;-122.892;2023-09-12T00:18:39;5.22;;;2.33;;
80854;SDS011;70272;49.222;-122.892;2023-09-12T00:21:05;4.70;;;2.15;;
80854;SDS011;70272;49.222;-122.892;2023-09-12T00:23:32;4.05;;;2.22;;
80854;SDS011;70272;49.222;-122.892;2023-09-12T00:25:58;6.40;;;2.20;;
80854;SDS011;70272;49.222;-122.892;2023-09-12T00:28:24;3.45;;;2.22;;
80854;SDS011;70272;49.222;-122.892;2023-09-12T00:30:51;5.40;;;2.45;;
80854;SDS011;70272;49.222;-122.892;2023-09-12T00:33:17;2.95;;;2.25;;
80854;SDS011;70272;49.222;-122.892;2023-09-12T00:35:44;3.40;;;2.00;;
80854;SDS011;70272;49.222;-122.892;2023-09-12T00:38:10;5.00;;;2.30;;
80854;SDS011;70272;49.222;-122.892;2023-09-12T00:40:37;3.40;;;2.08;;
80854;SDS011;70272;49.222;-122.892;2023-09-12T00:43:03;3.67;;;2.53;;
80854;SDS011;70272;49.222;-122.892;2023-09-12T00:45:30;4.18;;;2.30;;
80854;SDS011;70272;49.222;-122.892;2023-09-12T00:47:57;3.30;;;2.20;;
80854;SDS011;70272;49.222;-122.892;2023-09-12T00:50:24;3.10;;;2.28;;
80854;SDS011;70272;49.222;-122.892;2023-09-12T00:52:51;3.25;;;2.00;;
80854;SDS011;70272;49.222;-122.892;2023-09-12T00:55:19;3.72;;;2.58;;
80854;SDS011;70272;49.222;-122.892;2023-09-12T00:57:45;3.17;;;2.35;;
80854;SDS011;70272;49.222;-122.892;2023-09-12T01:00:12;2.67;;;2.08;;
80854;SDS011;70272;49.222;-122.892;2023-09-12T01:02:39;3.47;;;2.17;;
80854;SDS011;70272;49.222;-122.892;2023-09-12T01:05:07;3.63;;;2.30;;
80854;SDS011;70272;49.222;-122.892;2023-09-12T01:07:35;2.92;;;2.08;;
80854;SDS011;70272;49.222;-122.892;2023-09-12T01:10:02;2.92;;;2.00;;
80854;SDS011;70272;49.222;-122.892;2023-09-12T01:12:29;4.18;;;2.35;;
80854;SDS011;70272;49.222;-122.892;2023-09-12T01:14:57;3.50;;;2.13;;
80854;SDS011;70272;49.222;-122.892;2023-09-12T01:17:24;3.33;;;2.40;;
80854;SDS011;70272;49.222;-122.892;2023-09-12T01:19:50;3.60;;;2.00;;
80854;SDS011;70272;49.222;-122.892;2023-09-12T01:25:34;3.70;;;1.90;;
80854;SDS011;70272;49.222;-122.892;2023-09-12T01:28:21;4.53;;;2.10;;
80854;SDS011;70272;49.222;-122.892;2023-09-12T01:30:52;3.63;;;2.00;;
80854;SDS011;70272;49.222;-122.892;2023-09-12T01:33:19;3.30;;;2.30;;
80854;SDS011;70272;49.222;-122.892;2023-09-12T01:35:46;2.90;;;2.00;;
80854;SDS011;70272;49.222;-122.892;2023-09-12T01:38:13;3.53;;;2.03;;
80854;SDS011;70272;49.222;-122.892;2023-09-12T01:40:47;3.10;;;1.92;;
80854;SDS011;70272;49.222;-122.892;2023-09-12T01:43:16;3.40;;;2.00;;
80854;SDS011;70272;49.222;-122.892;2023-09-12T01:45:52;4.22;;;2.10;;
80854;SDS011;70272;49.222;-122.892;2023-09-12T01:48:21;3.22;;;1.88;;
80854;SDS011;70272;49.222;-122.892;2023-09-12T01:50:49;3.20;;;1.90;;
80854;SDS011;70272;49.222;-122.892;2023-09-12T01:53:16;2.90;;;1.92;;
80854;SDS011;70272;49.222;-122.892;2023-09-12T01:55:43;3.95;;;1.90;;
80854;SDS011;70272;49.222;-122.892;2023-09-12T01:58:10;3.10;;;1.70;;
80854;SDS011;70272;49.222;-122.892;2023-09-12T02:00:37;4.30;;;2.13;;
80854;SDS011;70272;49.222;-122.892;2023-09-12T02:03:04;3.17;;;2.00;;
80854;SDS011;70272;49.222;-122.892;2023-09-12T02:05:30;3.70;;;2.20;;
80854;SDS011;70272;49.222;-122.892;2023-09-12T02:07:57;2.80;;;1.80;;
80854;SDS011;70272;49.222;-122.892;2023-09-12T02:10:25;3.03;;;1.90;;
80854;SDS011;70272;49.222;-122.892;2023-09-12T02:12:52;3.90;;;1.90;;
80854;SDS011;70272;49.222;-122.892;2023-09-12T02:15:18;3.75;;;2.10;;
80854;SDS011;70272;49.222;-122.892;2023-09-12T02:17:44;2.53;;;1.85;;
80854;SDS011;70272;49.222;-122.892;2023-09-12T02:20:11;2.42;;;1.67;;
80854;SDS011;70272;49.222;-122.892;2023-09-12T02:22:37;2.90;;;1.85;;
80854;SDS011;70272;49.222;-122.892;2023-09-12T02:25:04;3.17;;;1.70;;
80854;SDS011;70272;49.222;-122.892;2023-09-12T02:27:31;2.50;;;1.80;;
80854;SDS011;70272;49.222;-122.892;2023-09-12T02:29:57;2.80;;;1.80;;
80854;SDS011;70272;49.222;-122.892;2023-09-12T02:32:24;2.80;;;1.90;;
80854;SDS011;70272;49.222;-122.892;2023-09-12T02:34:50;3.60;;;1.73;;
80854;SDS011;70272;49.222;-122.892;2023-09-12T02:37:18;2.47;;;1.60;;
80854;SDS011;70272;49.222;-122.892;2023-09-12T02:39:45;2.72;;;1.90;;
80854;SDS011;70272;49.222;-122.892;2023-09-12T02:42:11;3.75;;;1.70;;
80854;SDS011;70272;49.222;-122.892;2023-09-12T02:44:37;2.67;;;1.60;;
80854;SDS011;70272;49.222;-122.892;2023-09-12T02:47:04;2.83;;;2.03;;
80854;SDS011;70272;49.222;-122.892;2023-09-12T02:49:30;3.13;;;1.70;;
80854;SDS011;70272;49.222;-122.892;2023-09-12T02:51:56;3.17;;;1.67;;
80854;SDS011;70272;49.222;-122.892;2023-09-12T02:54:23;4.05;;;2.30;;
80854;SDS011;70272;49.222;-122.892;2023-09-12T02:56:49;4.03;;;2.15;;
80854;SDS011;70272;49.222;-122.892;2023-09-12T02:59:15;2.92;;;1.73;;
80854;SDS011;70272;49.222;-122.892;2023-09-12T03:01:41;3.10;;;1.80;;
80854;SDS011;70272;49.222;-122.892;2023-09-12T03:04:08;3.47;;;2.00;;
80854;SDS011;70272;49.222;-122.892;2023-09-12T03:06:34;4.78;;;1.90;;
80854;SDS011;70272;49.222;-122.892;2023-09-12T03:09:01;2.40;;;1.80;;
80854;SDS011;70272;49.222;-122.892;2023-09-12T03:11:28;3.63;;;1.88;;
80854;SDS011;70272;49.222;-122.892;2023-09-12T03:13:55;2.80;;;1.75;;
80854;SDS011;70272;49.222;-122.892;2023-09-12T03:16:21;2.50;;;1.60;;
80854;SDS011;70272;49.222;-122.892;2023-09-12T03:18:49;2.80;;;1.98;;
80854;SDS011;70272;49.222;-122.892;2023-09-12T03:21:16;3.63;;;1.75;;
80854;SDS011;70272;49.222;-122.892;2023-09-12T03:23:42;3.35;;;1.90;;
80854;SDS011;70272;49.222;-122.892;2023-09-12T03:26:09;3.20;;;2.05;;
80854;SDS011;70272;49.222;-122.892;2023-09-12T03:28:35;4.03;;;2.05;;
80854;SDS011;70272;49.222;-122.892;2023-09-12T03:31:11;3.42;;;1.92;;
80854;SDS011;70272;49.222;-122.892;2023-09-12T03:33:38;3.45;;;1.90;;
80854;SDS011;70272;49.222;-122.892;2023-09-12T03:36:13;4.82;;;2.00;;
80854;SDS011;70272;49.222;-122.892;2023-09-12T03:38:39;3.28;;;2.00;;
80854;SDS011;70272;49.222;-122.892;2023-09-12T03:41:05;3.42;;;2.10;;
80854;SDS011;70272;49.222;-122.892;2023-09-12T03:43:32;3.65;;;1.75;;
80854;SDS011;70272;49.222;-122.892;2023-09-12T03:45:59;2.83;;;2.05;;
80854;SDS011;70272;49.222;-122.892;2023-09-12T03:48:25;4.57;;;2.13;;
80854;SDS011;70272;49.222;-122.892;2023-09-12T03:50:51;3.45;;;1.90;;
80854;SDS011;70272;49.222;-122.892;2023-09-12T03:53:18;3.17;;;1.95;;
80854;SDS011;70272;49.222;-122.892;2023-09-12T03:55:47;4.60;;;2.10;;
80854;SDS011;70272;49.222;-122.892;2023-09-12T03:58:13;3.25;;;1.85;;
80854;SDS011;70272;49.222;-122.892;2023-09-12T04:00:39;2.60;;;1.70;;
80854;SDS011;70272;49.222;-122.892;2023-09-12T04:03:05;4.45;;;2.00;;
80854;SDS011;70272;49.222;-122.892;2023-09-12T04:05:32;3.90;;;2.03;;
80854;SDS011;70272;49.222;-122.892;2023-09-12T04:07:58;3.67;;;2.10;;
80854;SDS011;70272;49.222;-122.892;2023-09-12T04:10:24;4.15;;;2.10;;
80854;SDS011;70272;49.222;-122.892;2023-09-12T04:12:50;3.72;;;2.10;;
80854;SDS011;70272;49.222;-122.892;2023-09-12T04:15:17;3.67;;;2.00;;
80854;SDS011;70272;49.222;-122.892;2023-09-12T04:17:43;2.88;;;1.88;;
80854;SDS011;70272;49.222;-122.892;2023-09-12T04:20:09;3.22;;;2.00;;
80854;SDS011;70272;49.222;-122.892;2023-09-12T04:22:39;3.20;;;1.65;;
80854;SDS011;70272;49.222;-122.892;2023-09-12T04:25:06;3.80;;;2.10;;
80854;SDS011;70272;49.222;-122.892;2023-09-12T04:27:32;3.80;;;1.90;;
80854;SDS011;70272;49.222;-122.892;2023-09-12T04:29:59;3.08;;;1.98;;
80854;SDS011;70272;49.222;-122.892;2023-09-12T04:32:26;3.25;;;2.10;;
80854;SDS011;70272;49.222;-122.892;2023-09-12T04:34:52;3.72;;;1.98;;
80854;SDS011;70272;49.222;-122.892;2023-09-12T04:37:18;4.75;;;2.28;;
80854;SDS011;70272;49.222;-122.892;2023-09-12T04:39:45;5.25;;;1.90;;
80854;SDS011;70272;49.222;-122.892;2023-09-12T04:42:11;3.67;;;2.08;;
80854;SDS011;70272;49.222;-122.892;2023-09-12T04:44:40;3.95;;;2.53;;
80854;SDS011;70272;49.222;-122.892;2023-09-12T04:47:07;4.22;;;2.05;;
80854;SDS011;70272;49.222;-122.892;2023-09-12T04:49:34;3.70;;;2.33;;
80854;SDS011;70272;49.222;-122.892;2023-09-12T04:52:01;4.07;;;1.90;;
80854;SDS011;70272;49.222;-122.892;2023-09-12T04:54:27;3.83;;;2.25;;
80854;SDS011;70272;49.222;-122.892;2023-09-12T04:56:54;4.28;;;2.72;;
80854;SDS011;70272;49.222;-122.892;2023-09-12T04:59:20;5.22;;;2.55;;
80854;SDS011;70272;49.222;-122.892;2023-09-12T05:01:46;4.13;;;2.42;;
80854;SDS011;70272;49.222;-122.892;2023-09-12T05:04:13;4.13;;;2.47;;
80854;SDS011;70272;49.222;-122.892;2023-09-12T05:06:39;5.70;;;2.35;;
80854;SDS011;70272;49.222;-122.892;2023-09-12T05:09:05;4.78;;;2.30;;
80854;SDS011;70272;49.222;-122.892;2023-09-12T05:11:34;3.78;;;2.10;;
80854;SDS011;70272;49.222;-122.892;2023-09-12T05:14:03;4.43;;;2.28;;
80854;SDS011;70272;49.222;-122.892;2023-09-12T05:16:29;6.95;;;2.55;;
80854;SDS011;70272;49.222;-122.892;2023-09-12T05:18:55;4.18;;;2.47;;
80854;SDS011;70272;49.222;-122.892;2023-09-12T05:21:22;4.70;;;2.47;;
80854;SDS011;70272;49.222;-122.892;2023-09-12T05:23:48;6.28;;;2.70;;
80854;SDS011;70272;49.222;-122.892;2023-09-12T05:26:14;5.43;;;2.53;;
80854;SDS011;70272;49.222;-122.892;2023-09-12T05:28:40;4.63;;;2.35;;
80854;SDS011;70272;49.222;-122.892;2023-09-12T05:31:07;5.95;;;2.58;;
80854;SDS011;70272;49.222;-122.892;2023-09-12T05:33:33;4.97;;;2.70;;
80854;SDS011;70272;49.222;-122.892;2023-09-12T05:36:00;6.93;;;2.90;;
80854;SDS011;70272;49.222;-122.892;2023-09-12T05:38:26;8.70;;;2.72;;
80854;SDS011;70272;49.222;-122.892;2023-09-12T05:40:52;5.63;;;2.40;;
80854;SDS011;70272;49.222;-122.892;2023-09-12T05:43:19;5.43;;;2.67;;
80854;SDS011;70272;49.222;-122.892;2023-09-12T05:45:45;4.95;;;2.75;;
80854;SDS011;70272;49.222;-122.892;2023-09-12T05:48:11;4.57;;;2.40;;
80854;SDS011;70272;49.222;-122.892;2023-09-12T05:50:37;4.13;;;2.30;;
80854;SDS011;70272;49.222;-122.892;2023-09-12T05:53:04;5.03;;;2.72;;
80854;SDS011;70272;49.222;-122.892;2023-09-12T05:55:32;4.45;;;2.53;;
80854;SDS011;70272;49.222;-122.892;2023-09-12T05:57:59;5.22;;;2.42;;
80854;SDS011;70272;49.222;-122.892;2023-09-12T06:00:25;4.30;;;2.47;;
80854;SDS011;70272;49.222;-122.892;2023-09-12T06:02:51;6.25;;;2.63;;
80854;SDS011;70272;49.222;-122.892;2023-09-12T06:05:17;4.50;;;2.42;;
80854;SDS011;70272;49.222;-122.892;2023-09-12T06:07:44;7.88;;;2.30;;
80854;SDS011;70272;49.222;-122.892;2023-09-12T06:10:12;5.53;;;2.50;;
80854;SDS011;70272;49.222;-122.892;2023-09-12T06:12:38;4.97;;;2.40;;
80854;SDS011;70272;49.222;-122.892;2023-09-12T06:15:04;3.72;;;2.33;;
80854;SDS011;70272;49.222;-122.892;2023-09-12T06:17:31;4.75;;;2.33;;
80854;SDS011;70272;49.222;-122.892;2023-09-12T06:19:57;9.00;;;5.68;;
80854;SDS011;70272;49.222;-122.892;2023-09-12T06:22:24;4.35;;;3.00;;
80854;SDS011;70272;49.222;-122.892;2023-09-12T06:24:51;4.30;;;2.50;;
80854;SDS011;70272;49.222;-122.892;2023-09-12T06:27:17;5.07;;;2.60;;
80854;SDS011;70272;49.222;-122.892;2023-09-12T06:29:44;4.90;;;2.70;;
80854;SDS011;70272;49.222;-122.892;2023-09-12T06:32:13;4.28;;;2.25;;
80854;SDS011;70272;49.222;-122.892;2023-09-12T06:34:41;4.47;;;2.40;;
80854;SDS011;70272;49.222;-122.892;2023-09-12T06:37:07;4.85;;;2.40;;
80854;SDS011;70272;49.222;-122.892;2023-09-12T06:39:34;5.82;;;2.70;;
80854;SDS011;70272;49.222;-122.892;2023-09-12T06:42:00;6.88;;;2.60;;
80854;SDS011;70272;49.222;-122.892;2023-09-12T06:44:27;5.45;;;2.67;;
80854;SDS011;70272;49.222;-122.892;2023-09-12T06:46:53;4.95;;;2.58;;
80854;SDS011;70272;49.222;-122.892;2023-09-12T06:49:19;3.75;;;2.22;;
80854;SDS011;70272;49.222;-122.892;2023-09-12T06:51:46;4.43;;;2.30;;
80854;SDS011;70272;49.222;-122.892;2023-09-12T06:54:12;5.05;;;2.30;;
80854;SDS011;70272;49.222;-122.892;2023-09-12T06:56:38;4.15;;;2.20;;
80854;SDS011;70272;49.222;-122.892;2023-09-12T06:59:07;4.50;;;2.40;;
80854;SDS011;70272;49.222;-122.892;2023-09-12T07:01:33;4.90;;;2.30;;
80854;SDS011;70272;49.222;-122.892;2023-09-12T07:03:59;5.00;;;2.65;;
80854;SDS011;70272;49.222;-122.892;2023-09-12T07:06:27;5.90;;;2.75;;
80854;SDS011;70272;49.222;-122.892;2023-09-12T07:08:53;5.57;;;2.60;;
80854;SDS011;70272;49.222;-122.892;2023-09-12T07:11:19;5.63;;;2.40;;
80854;SDS011;70272;49.222;-122.892;2023-09-12T07:13:45;5.15;;;2.50;;
80854;SDS011;70272;49.222;-122.892;2023-09-12T07:16:12;3.75;;;2.60;;
80854;SDS011;70272;49.222;-122.892;2023-09-12T07:18:38;4.00;;;2.53;;
80854;SDS011;70272;49.222;-122.892;2023-09-12T07:21:05;4.13;;;2.33;;
80854;SDS011;70272;49.222;-122.892;2023-09-12T07:23:32;5.97;;;2.58;;
80854;SDS011;70272;49.222;-122.892;2023-09-12T07:25:58;3.78;;;2.65;;
80854;SDS011;70272;49.222;-122.892;2023-09-12T07:28:25;4.47;;;2.55;;
80854;SDS011;70272;49.222;-122.892;2023-09-12T07:30:52;3.72;;;2.30;;
80854;SDS011;70272;49.222;-122.892;2023-09-12T07:33:20;3.88;;;2.40;;
80854;SDS011;70272;49.222;-122.892;2023-09-12T07:35:47;5.40;;;2.85;;
80854;SDS011;70272;49.222;-122.892;2023-09-12T07:38:13;4.95;;;2.60;;
80854;SDS011;70272;49.222;-122.892;2023-09-12T07:40:42;5.25;;;2.60;;
80854;SDS011;70272;49.222;-122.892;2023-09-12T07:43:09;5.15;;;2.63;;
80854;SDS011;70272;49.222;-122.892;2023-09-12T07:45:36;6.32;;;2.80;;
80854;SDS011;70272;49.222;-122.892;2023-09-12T07:48:06;3.55;;;2.42;;
80854;SDS011;70272;49.222;-122.892;2023-09-12T07:50:33;7.15;;;2.67;;
80854;SDS011;70272;49.222;-122.892;2023-09-12T07:52:59;3.95;;;2.45;;
80854;SDS011;70272;49.222;-122.892;2023-09-12T07:55:25;5.03;;;3.05;;
80854;SDS011;70272;49.222;-122.892;2023-09-12T07:57:56;4.07;;;2.67;;
80854;SDS011;70272;49.222;-122.892;2023-09-12T08:00:22;5.13;;;2.70;;
80854;SDS011;70272;49.222;-122.892;2023-09-12T08:02:49;5.90;;;3.20;;
80854;SDS011;70272;49.222;-122.892;2023-09-12T08:05:15;3.45;;;2.60;;
80854;SDS011;70272;49.222;-122.892;2023-09-12T08:07:41;5.22;;;2.83;;
80854;SDS011;70272;49.222;-122.892;2023-09-12T08:10:08;5.45;;;3.35;;
80854;SDS011;70272;49.222;-122.892;2023-09-12T08:12:35;4.88;;;2.72;;
80854;SDS011;70272;49.222;-122.892;2023-09-12T08:15:07;5.43;;;2.97;;
80854;SDS011;70272;49.222;-122.892;2023-09-12T08:17:33;3.80;;;2.67;;
80854;SDS011;70272;49.222;-122.892;2023-09-12T08:19:59;3.92;;;2.40;;
80854;SDS011;70272;49.222;-122.892;2023-09-12T08:22:26;5.28;;;2.58;;
80854;SDS011;70272;49.222;-122.892;2023-09-12T08:24:53;5.95;;;2.50;;
80854;SDS011;70272;49.222;-122.892;2023-09-12T08:27:19;5.90;;;2.22;;
80854;SDS011;70272;49.222;-122.892;2023-09-12T08:29:45;4.35;;;2.22;;
80854;SDS011;70272;49.222;-122.892;2023-09-12T08:32:13;4.32;;;2.17;;
80854;SDS011;70272;49.222;-122.892;2023-09-12T08:34:40;5.30;;;2.47;;
80854;SDS011;70272;49.222;-122.892;2023-09-12T08:37:06;3.00;;;2.10;;
80854;SDS011;70272;49.222;-122.892;2023-09-12T08:39:41;3.00;;;1.90;;
80854;SDS011;70272;49.222;-122.892;2023-09-12T08:42:13;3.67;;;2.05;;
80854;SDS011;70272;49.222;-122.892;2023-09-12T08:44:41;3.58;;;2.10;;
80854;SDS011;70272;49.222;-122.892;2023-09-12T08:47:08;3.47;;;2.03;;
80854;SDS011;70272;49.222;-122.892;2023-09-12T08:49:38;5.65;;;2.00;;
80854;SDS011;70272;49.222;-122.892;2023-09-12T08:52:04;3.65;;;2.00;;
80854;SDS011;70272;49.222;-122.892;2023-09-12T08:54:31;5.22;;;2.20;;
80854;SDS011;70272;49.222;-122.892;2023-09-12T08:56:59;4.18;;;2.05;;
80854;SDS011;70272;49.222;-122.892;2023-09-12T08:59:33;5.22;;;2.10;;
80854;SDS011;70272;49.222;-122.892;2023-09-12T09:02:00;3.60;;;2.08;;
80854;SDS011;70272;49.222;-122.892;2023-09-12T09:04:30;5.53;;;2.17;;
80854;SDS011;70272;49.222;-122.892;2023-09-12T09:06:57;4.60;;;2.30;;
80854;SDS011;70272;49.222;-122.892;2023-09-12T09:09:24;4.47;;;2.42;;
80854;SDS011;70272;49.222;-122.892;2023-09-12T09:11:50;4.65;;;2.70;;
80854;SDS011;70272;49.222;-122.892;2023-09-12T09:14:16;3.92;;;2.33;;
80854;SDS011;70272;49.222;-122.892;2023-09-12T09:16:42;4.68;;;2.80;;
80854;SDS011;70272;49.222;-122.892;2023-09-12T09:19:09;6.43;;;2.50;;
80854;SDS011;70272;49.222;-122.892;2023-09-12T09:21:36;4.03;;;2.50;;
80854;SDS011;70272;49.222;-122.892;2023-09-12T09:24:07;5.65;;;2.25;;
80854;SDS011;70272;49.222;-122.892;2023-09-12T09:26:42;7.28;;;2.50;;
80854;SDS011;70272;49.222;-122.892;2023-09-12T09:29:21;4.03;;;2.20;;
80854;SDS011;70272;49.222;-122.892;2023-09-12T09:31:48;6.65;;;2.63;;
80854;SDS011;70272;49.222;-122.892;2023-09-12T09:34:16;4.75;;;3.03;;
80854;SDS011;70272;49.222;-122.892;2023-09-12T09:36:44;4.15;;;2.45;;
80854;SDS011;70272;49.222;-122.892;2023-09-12T09:39:13;4.03;;;2.60;;
80854;SDS011;70272;49.222;-122.892;2023-09-12T09:41:40;4.35;;;2.53;;
80854;SDS011;70272;49.222;-122.892;2023-09-12T09:44:09;4.78;;;2.40;;
80854;SDS011;70272;49.222;-122.892;2023-09-12T09:46:35;4.72;;;2.60;;
80854;SDS011;70272;49.222;-122.892;2023-09-12T09:49:03;4.60;;;2.60;;
80854;SDS011;70272;49.222;-122.892;2023-09-12T09:51:31;4.03;;;2.40;;
80854;SDS011;70272;49.222;-122.892;2023-09-12T09:53:57;6.55;;;2.58;;
80854;SDS011;70272;49.222;-122.892;2023-09-12T09:56:26;5.35;;;2.47;;
80854;SDS011;70272;49.222;-122.892;2023-09-12T09:58:53;5.68;;;2.60;;
80854;SDS011;70272;49.222;-122.892;2023-09-12T10:01:27;4.82;;;2.70;;
80854;SDS011;70272;49.222;-122.892;2023-09-12T10:03:58;7.68;;;2.50;;
80854;SDS011;70272;49.222;-122.892;2023-09-12T10:06:25;4.65;;;2.42;;
80854;SDS011;70272;49.222;-122.892;2023-09-12T10:08:53;3.40;;;2.35;;
80854;SDS011;70272;49.222;-122.892;2023-09-12T10:11:22;4.90;;;2.75;;
80854;SDS011;70272;49.222;-122.892;2023-09-12T10:13:51;4.35;;;2.40;;
80854;SDS011;70272;49.222;-122.892;2023-09-12T10:16:20;4.70;;;2.70;;
80854;SDS011;70272;49.222;-122.892;2023-09-12T10:21:35;5.63;;;2.33;;
80854;SDS011;70272;49.222;-122.892;2023-09-12T10:24:05;6.45;;;2.90;;
80854;SDS011;70272;49.222;-122.892;2023-09-12T10:26:31;6.65;;;2.60;;
80854;SDS011;70272;49.222;-122.892;2023-09-12T10:28:59;6.47;;;2.60;;
80854;SDS011;70272;49.222;-122.892;2023-09-12T10:31:25;4.47;;;2.30;;
80854;SDS011;70272;49.222;-122.892;2023-09-12T10:33:52;4.85;;;2.30;;
80854;SDS011;70272;49.222;-122.892;2023-09-12T10:36:19;5.20;;;2.42;;
80854;SDS011;70272;49.222;-122.892;2023-09-12T10:38:47;6.43;;;2.40;;
80854;SDS011;70272;49.222;-122.892;2023-09-12T10:41:15;5.10;;;2.42;;
80854;SDS011;70272;49.222;-122.892;2023-09-12T10:43:42;6.03;;;2.28;;
80854;SDS011;70272;49.222;-122.892;2023-09-12T10:46:12;4.50;;;2.33;;
80854;SDS011;70272;49.222;-122.892;2023-09-12T10:48:38;5.63;;;2.90;;
80854;SDS011;70272;49.222;-122.892;2023-09-12T10:51:07;4.10;;;2.40;;
80854;SDS011;70272;49.222;-122.892;2023-09-12T10:53:34;6.35;;;2.20;;
80854;SDS011;70272;49.222;-122.892;2023-09-12T10:56:18;6.03;;;2.30;;
80854;SDS011;70272;49.222;-122.892;2023-09-12T11:01:47;7.93;;;2.55;;
80854;SDS011;70272;49.222;-122.892;2023-09-12T11:06:50;6.88;;;2.33;;
80854;SDS011;70272;49.222;-122.892;2023-09-12T11:09:23;4.53;;;2.10;;
80854;SDS011;70272;49.222;-122.892;2023-09-12T11:11:57;6.88;;;2.42;;
80854;SDS011;70272;49.222;-122.892;2023-09-12T11:14:35;3.10;;;2.13;;
80854;SDS011;70272;49.222;-122.892;2023-09-12T11:19:45;4.90;;;2.40;;
80854;SDS011;70272;49.222;-122.892;2023-09-12T11:22:21;5.18;;;2.35;;
80854;SDS011;70272;49.222;-122.892;2023-09-12T11:24:50;3.10;;;2.10;;
80854;SDS011;70272;49.222;-122.892;2023-09-12T11:27:16;4.07;;;2.20;;
80854;SDS011;70272;49.222;-122.892;2023-09-12T11:29:43;5.10;;;2.38;;
80854;SDS011;70272;49.222;-122.892;2023-09-12T11:32:09;3.90;;;2.15;;
80854;SDS011;70272;49.222;-122.892;2023-09-12T11:34:36;5.18;;;2.30;;
80854;SDS011;70272;49.222;-122.892;2023-09-12T11:37:06;5.03;;;2.35;;
80854;SDS011;70272;49.222;-122.892;2023-09-12T11:39:33;5.13;;;2.20;;
80854;SDS011;70272;49.222;-122.892;2023-09-12T11:42:01;5.10;;;2.20;;
80854;SDS011;70272;49.222;-122.892;2023-09-12T11:44:28;4.53;;;2.30;;
80854;SDS011;70272;49.222;-122.892;2023-09-12T11:47:02;4.43;;;2.20;;
80854;SDS011;70272;49.222;-122.892;2023-09-12T11:52:12;10.95;;;2.45;;
80854;SDS011;70272;49.222;-122.892;2023-09-12T11:54:41;5.38;;;2.50;;
80854;SDS011;70272;49.222;-122.892;2023-09-12T11:57:17;4.95;;;2.08;;
80854;SDS011;70272;49.222;-122.892;2023-09-12T11:59:43;4.65;;;2.15;;
80854;SDS011;70272;49.222;-122.892;2023-09-12T12:02:11;3.90;;;2.30;;
80854;SDS011;70272;49.222;-122.892;2023-09-12T12:04:37;3.58;;;2.55;;
80854;SDS011;70272;49.222;-122.892;2023-09-12T12:07:04;4.65;;;2.45;;
80854;SDS011;70272;49.222;-122.892;2023-09-12T12:09:30;3.78;;;2.35;;
80854;SDS011;70272;49.222;-122.892;2023-09-12T12:12:03;3.40;;;2.00;;
80854;SDS011;70272;49.222;-122.892;2023-09-12T12:14:30;3.78;;;2.17;;
80854;SDS011;70272;49.222;-122.892;2023-09-12T12:17:07;4.57;;;2.35;;
80854;SDS011;70272;49.222;-122.892;2023-09-12T12:19:35;4.20;;;2.10;;
80854;SDS011;70272;49.222;-122.892;2023-09-12T12:22:05;6.15;;;2.30;;
80854;SDS011;70272;49.222;-122.892;2023-09-12T12:24:39;4.65;;;2.30;;
80854;SDS011;70272;49.222;-122.892;2023-09-12T12:27:16;4.25;;;2.40;;
80854;SDS011;70272;49.222;-122.892;2023-09-12T12:29:43;7.75;;;2.63;;
80854;SDS011;70272;49.222;-122.892;2023-09-12T12:32:10;3.65;;;2.20;;
80854;SDS011;70272;49.222;-122.892;2023-09-12T12:34:36;6.07;;;2.35;;
80854;SDS011;70272;49.222;-122.892;2023-09-12T12:37:03;4.75;;;2.25;;
80854;SDS011;70272;49.222;-122.892;2023-09-12T12:39:29;4.78;;;2.20;;
80854;SDS011;70272;49.222;-122.892;2023-09-12T12:41:56;4.07;;;2.30;;
80854;SDS011;70272;49.222;-122.892;2023-09-12T12:44:25;3.20;;;2.22;;
80854;SDS011;70272;49.222;-122.892;2023-09-12T12:46:59;7.40;;;2.42;;
80854;SDS011;70272;49.222;-122.892;2023-09-12T12:49:25;4.32;;;2.00;;
80854;SDS011;70272;49.222;-122.892;2023-09-12T12:51:52;3.78;;;2.28;;
80854;SDS011;70272;49.222;-122.892;2023-09-12T12:54:21;3.60;;;2.08;;
80854;SDS011;70272;49.222;-122.892;2023-09-12T12:56:48;3.97;;;2.00;;
80854;SDS011;70272;49.222;-122.892;2023-09-12T12:59:14;4.40;;;2.58;;
80854;SDS011;70272;49.222;-122.892;2023-09-12T13:01:41;5.13;;;2.63;;
80854;SDS011;70272;49.222;-122.892;2023-09-12T13:04:09;5.03;;;2.63;;
80854;SDS011;70272;49.222;-122.892;2023-09-12T13:06:36;4.45;;;2.60;;
80854;SDS011;70272;49.222;-122.892;2023-09-12T13:09:06;9.25;;;3.08;;
80854;SDS011;70272;49.222;-122.892;2023-09-12T13:11:33;5.35;;;2.58;;
80854;SDS011;70272;49.222;-122.892;2023-09-12T13:14:03;6.38;;;2.60;;
80854;SDS011;70272;49.222;-122.892;2023-09-12T13:16:36;4.72;;;2.50;;
80854;SDS011;70272;49.222;-122.892;2023-09-12T13:19:04;7.32;;;2.47;;
80854;SDS011;70272;49.222;-122.892;2023-09-12T13:21:30;4.53;;;2.20;;
80854;SDS011;70272;49.222;-122.892;2023-09-12T13:24:00;5.22;;;2.40;;
80854;SDS011;70272;49.222;-122.892;2023-09-12T13:26:26;5.72;;;2.28;;
80854;SDS011;70272;49.222;-122.892;2023-09-12T13:28:53;3.47;;;2.30;;
80854;SDS011;70272;49.222;-122.892;2023-09-12T13:31:19;5.63;;;2.33;;
80854;SDS011;70272;49.222;-122.892;2023-09-12T13:33:45;4.60;;;2.20;;
80854;SDS011;70272;49.222;-122.892;2023-09-12T13:36:11;4.32;;;2.50;;
80854;SDS011;70272;49.222;-122.892;2023-09-12T13:38:38;4.40;;;2.20;;
80854;SDS011;70272;49.222;-122.892;2023-09-12T13:41:04;4.68;;;2.40;;
80854;SDS011;70272;49.222;-122.892;2023-09-12T13:43:30;4.38;;;2.40;;
80854;SDS011;70272;49.222;-122.892;2023-09-12T13:45:56;6.85;;;2.80;;
80854;SDS011;70272;49.222;-122.892;2023-09-12T13:48:26;5.38;;;3.10;;
80854;SDS011;70272;49.222;-122.892;2023-09-12T13:50:52;8.30;;;4.00;;
80854;SDS011;70272;49.222;-122.892;2023-09-12T13:53:19;6.32;;;3.35;;
80854;SDS011;70272;49.222;-122.892;2023-09-12T13:55:45;10.27;;;6.38;;
80854;SDS011;70272;49.222;-122.892;2023-09-12T13:58:11;10.13;;;4.10;;
80854;SDS011;70272;49.222;-122.892;2023-09-12T14:00:37;16.30;;;6.38;;
80854;SDS011;70272;49.222;-122.892;2023-09-12T14:03:04;8.80;;;5.15;;
80854;SDS011;70272;49.222;-122.892;2023-09-12T14:05:30;10.00;;;4.22;;
80854;SDS011;70272;49.222;-122.892;2023-09-12T14:07:56;24.08;;;22.02;;
80854;SDS011;70272;49.222;-122.892;2023-09-12T14:10:22;13.55;;;8.65;;
80854;SDS011;70272;49.222;-122.892;2023-09-12T14:12:49;6.97;;;2.90;;
80854;SDS011;70272;49.222;-122.892;2023-09-12T14:15:15;8.85;;;3.83;;
80854;SDS011;70272;49.222;-122.892;2023-09-12T14:17:41;24.83;;;11.00;;
80854;SDS011;70272;49.222;-122.892;2023-09-12T14:20:08;16.17;;;8.07;;
80854;SDS011;70272;49.222;-122.892;2023-09-12T14:22:35;16.58;;;11.20;;
80854;SDS011;70272;49.222;-122.892;2023-09-12T14:25:02;45.22;;;41.13;;
80854;SDS011;70272;49.222;-122.892;2023-09-12T14:27:28;26.05;;;22.60;;